Thayer, Missouri
Current Conditions -  °F | °C
As of 9:53 PM on Friday 24 Oct 2014 (Local Time) from KUNO Reporting Station
Clear Clear  
Wind Chill: 63°   Ceiling: Unl
Heat Index: 63°   Visibility: 10mi
Dew Point: 56°   Wind: 5mph
Humidity: 78%   Direction: 200°SSW
Pressure: 30.09"   Gusts: NA
Location:  36.52°N, 91.54°W
Report Text: KUNO 250253Z AUTO 20004KT 10SM CLR 17/13 A3009 RMK AO2 SLP184 T01720133 51006
Loading
Personal Weather Stations






























Interactive Weather Map
Tropical Storm Tracking
New forecast layout! Learn more

10-Day Weather Forecast

Advertisements
Track Severe Weather on mobile